createdAt,value
2018-01-28T00:02:16.765Z,14.43
2018-01-28T00:04:44.669Z,14.93
2018-01-28T00:07:12.540Z,13.63
2018-01-28T00:09:40.499Z,14.07
2018-01-28T00:12:08.350Z,14.57
2018-01-28T00:14:36.224Z,14.60
2018-01-28T00:17:04.073Z,12.90
2018-01-28T00:19:31.945Z,12.20
2018-01-28T00:21:59.783Z,13.70
2018-01-28T00:24:27.695Z,12.33
2018-01-28T00:26:55.544Z,12.87
2018-01-28T00:29:23.431Z,13.67
2018-01-28T00:31:51.317Z,12.80
2018-01-28T00:34:19.173Z,12.30
2018-01-28T00:36:47.041Z,12.07
2018-01-28T00:39:14.900Z,12.67
2018-01-28T00:41:42.741Z,11.60
2018-01-28T00:44:10.610Z,11.53
2018-01-28T00:46:38.585Z,11.03
2018-01-28T00:49:06.462Z,10.03
2018-01-28T00:51:34.312Z,9.60
2018-01-28T00:54:02.197Z,12.65
2018-01-28T00:56:30.144Z,11.63
2018-01-28T00:58:58.018Z,11.07
2018-01-28T01:01:25.856Z,11.87
2018-01-28T01:03:53.735Z,10.17
2018-01-28T01:06:21.630Z,11.47
2018-01-28T01:08:49.467Z,11.27
2018-01-28T01:11:17.359Z,10.70
2018-01-28T01:13:45.212Z,9.70
2018-01-28T01:16:13.069Z,11.40
2018-01-28T01:18:40.924Z,10.10
2018-01-28T01:21:08.763Z,10.20
2018-01-28T01:23:36.728Z,10.57
2018-01-28T01:26:04.566Z,10.27
2018-01-28T01:28:32.415Z,10.07
2018-01-28T01:31:00.253Z,10.60
2018-01-28T01:33:28.110Z,9.90
2018-01-28T01:35:56.073Z,12.10
2018-01-28T01:38:23.920Z,11.30
2018-01-28T01:40:51.769Z,11.00
2018-01-28T01:43:19.748Z,9.47
2018-01-28T01:45:47.587Z,10.30
2018-01-28T01:48:15.448Z,9.97
2018-01-28T01:50:43.323Z,9.50
2018-01-28T01:53:11.193Z,10.67
2018-01-28T01:55:39.055Z,10.37
2018-01-28T01:58:06.928Z,10.77
2018-01-28T02:00:34.803Z,10.33
2018-01-28T02:03:02.652Z,9.50
2018-01-28T02:05:30.524Z,8.73
2018-01-28T02:07:58.432Z,9.33
2018-01-28T02:10:26.277Z,8.73
2018-01-28T02:12:54.177Z,9.23
2018-01-28T02:15:22.022Z,8.23
2018-01-28T02:17:49.889Z,9.30
2018-01-28T02:20:17.780Z,9.07
2018-01-28T02:22:45.682Z,9.20
2018-01-28T02:25:13.520Z,8.50
2018-01-28T02:27:41.372Z,9.50
2018-01-28T02:30:09.207Z,9.13
2018-01-28T02:32:37.108Z,8.70
2018-01-28T02:35:05.039Z,9.17
2018-01-28T02:37:32.868Z,8.13
2018-01-28T02:40:00.717Z,9.30
2018-01-28T02:42:28.629Z,8.23
2018-01-28T02:44:56.490Z,6.90
2018-01-28T02:47:24.366Z,8.70
2018-01-28T02:49:52.264Z,7.90
2018-01-28T02:52:20.137Z,8.00
2018-01-28T02:54:48.024Z,7.80
2018-01-28T02:57:15.880Z,8.90
2018-01-28T02:59:44.728Z,7.37
2018-01-28T03:02:12.643Z,7.73
2018-01-28T03:04:40.600Z,7.70
2018-01-28T03:07:08.492Z,8.70
2018-01-28T03:09:36.439Z,8.10
2018-01-28T03:12:04.307Z,8.40
2018-01-28T03:14:32.156Z,7.60
2018-01-28T03:17:00.006Z,8.37
2018-01-28T03:19:27.948Z,9.30
2018-01-28T03:21:55.786Z,9.03
2018-01-28T03:24:23.637Z,7.53
2018-01-28T03:26:51.529Z,6.83
2018-01-28T03:29:19.365Z,8.20
2018-01-28T03:31:47.234Z,7.70
2018-01-28T03:34:15.115Z,7.30
2018-01-28T03:36:42.984Z,7.50
2018-01-28T03:39:10.899Z,8.90
2018-01-28T03:41:38.786Z,8.13
2018-01-28T03:44:06.622Z,7.77
2018-01-28T03:46:34.460Z,8.13
2018-01-28T03:49:02.331Z,7.63
2018-01-28T03:51:30.180Z,7.60
2018-01-28T03:53:58.026Z,8.40
2018-01-28T03:56:25.941Z,8.13
2018-01-28T03:58:53.801Z,7.30
2018-01-28T04:01:21.623Z,8.20
2018-01-28T04:03:49.492Z,7.50
2018-01-28T04:06:17.360Z,7.50
2018-01-28T04:08:45.222Z,8.20
2018-01-28T04:11:13.151Z,8.33
2018-01-28T04:13:40.990Z,8.80
2018-01-28T04:16:08.871Z,8.43
2018-01-28T04:18:36.742Z,8.73
2018-01-28T04:21:04.596Z,8.73
2018-01-28T04:23:32.497Z,7.53
2018-01-28T04:26:00.396Z,7.57
2018-01-28T04:28:28.235Z,8.40
2018-01-28T04:30:56.089Z,7.67
2018-01-28T04:33:23.989Z,7.87
2018-01-28T04:35:51.840Z,8.50
2018-01-28T04:38:19.690Z,7.37
2018-01-28T04:40:47.560Z,8.43
2018-01-28T04:43:15.440Z,8.03
2018-01-28T04:45:43.324Z,8.40
2018-01-28T04:48:11.209Z,7.90
2018-01-28T04:50:39.057Z,8.10
2018-01-28T04:53:06.900Z,8.10
2018-01-28T04:55:34.761Z,7.87
2018-01-28T04:58:02.623Z,7.43
2018-01-28T05:00:36.444Z,8.70
2018-01-28T05:03:04.307Z,7.90
2018-01-28T05:05:32.167Z,8.80
2018-01-28T05:08:00.065Z,8.77
2018-01-28T05:10:27.905Z,8.50
2018-01-28T05:12:55.795Z,7.90
2018-01-28T05:15:23.660Z,8.13
2018-01-28T05:17:51.510Z,9.17
2018-01-28T05:20:19.360Z,8.83
2018-01-28T05:22:47.235Z,7.90
2018-01-28T05:25:15.100Z,8.00
2018-01-28T05:27:42.935Z,8.07
2018-01-28T05:30:10.837Z,7.43
2018-01-28T05:32:38.684Z,7.73
2018-01-28T05:35:06.537Z,7.70
2018-01-28T05:37:34.400Z,8.60
2018-01-28T05:40:02.232Z,7.80
2018-01-28T05:42:30.067Z,7.50
2018-01-28T05:44:57.983Z,8.10
2018-01-28T05:47:25.833Z,7.07
2018-01-28T05:49:53.670Z,7.13
2018-01-28T05:52:22.374Z,7.63
2018-01-28T05:54:50.199Z,8.03
2018-01-28T05:57:18.049Z,7.87
2018-01-28T05:59:45.906Z,8.17
2018-01-28T06:02:13.755Z,7.30
2018-01-28T06:04:41.596Z,7.00
2018-01-28T06:07:09.444Z,7.00
2018-01-28T06:09:37.271Z,8.00
2018-01-28T06:12:05.104Z,7.90
2018-01-28T06:14:32.987Z,7.67
2018-01-28T06:17:00.862Z,7.80
2018-01-28T06:19:28.691Z,7.57
2018-01-28T06:21:56.603Z,7.50
2018-01-28T06:24:24.444Z,8.07
2018-01-28T06:26:52.280Z,8.10
2018-01-28T06:29:20.148Z,7.20
2018-01-28T06:31:48.027Z,7.50
2018-01-28T06:34:15.916Z,7.13
2018-01-28T06:36:43.775Z,6.70
2018-01-28T06:39:11.655Z,7.03
2018-01-28T06:41:39.507Z,7.40
2018-01-28T06:44:07.416Z,7.47
2018-01-28T06:46:35.269Z,6.97
2018-01-28T06:49:03.111Z,6.90
2018-01-28T06:51:30.984Z,6.27
2018-01-28T06:53:58.812Z,7.20
2018-01-28T06:56:26.637Z,7.80
2018-01-28T06:58:54.522Z,8.07
2018-01-28T07:01:22.348Z,7.23
2018-01-28T07:03:50.185Z,7.43
2018-01-28T07:06:18.051Z,6.50
2018-01-28T07:08:45.904Z,6.90
2018-01-28T07:11:13.745Z,6.63
2018-01-28T07:13:41.613Z,7.30
2018-01-28T07:16:10.431Z,7.20
2018-01-28T07:18:38.263Z,6.63
2018-01-28T07:21:06.122Z,7.90
2018-01-28T07:23:33.959Z,7.50
2018-01-28T07:26:01.817Z,7.37
2018-01-28T07:28:29.711Z,6.90
2018-01-28T07:30:57.565Z,6.93
2018-01-28T07:33:25.404Z,5.93
2018-01-28T07:35:53.272Z,6.10
2018-01-28T07:38:21.109Z,7.57
2018-01-28T07:40:48.973Z,6.77
2018-01-28T07:43:16.827Z,6.30
2018-01-28T07:45:44.659Z,6.30
2018-01-28T07:48:12.568Z,5.83
2018-01-28T07:50:40.432Z,6.27
2018-01-28T07:53:08.267Z,6.10
2018-01-28T07:55:36.104Z,5.97
2018-01-28T07:58:04.009Z,6.80
2018-01-28T08:00:31.850Z,6.40
2018-01-28T08:02:59.675Z,6.30
2018-01-28T08:05:27.559Z,5.60
2018-01-28T08:07:55.394Z,6.30
2018-01-28T08:10:29.378Z,6.30
2018-01-28T08:12:59.049Z,6.93
2018-01-28T08:15:26.893Z,5.83
2018-01-28T08:17:54.860Z,5.97
2018-01-28T08:20:22.709Z,5.80
2018-01-28T08:22:50.579Z,5.80
2018-01-28T08:25:18.464Z,5.83
2018-01-28T08:27:50.244Z,5.97
2018-01-28T08:30:18.110Z,6.10
2018-01-28T08:32:45.952Z,6.63
2018-01-28T08:35:13.808Z,7.33
2018-01-28T08:37:41.679Z,6.23
2018-01-28T08:40:09.549Z,6.63
2018-01-28T08:42:37.375Z,6.37
2018-01-28T08:45:05.233Z,6.97
2018-01-28T08:47:33.068Z,6.70
2018-01-28T08:50:00.904Z,7.60
2018-01-28T08:52:31.081Z,7.20
2018-01-28T08:54:58.928Z,7.20
2018-01-28T08:57:26.799Z,6.77
2018-01-28T08:59:54.655Z,6.70
2018-01-28T09:02:22.492Z,7.13
2018-01-28T09:04:50.328Z,6.83
2018-01-28T09:07:18.270Z,7.23
2018-01-28T09:09:46.104Z,6.70
2018-01-28T09:12:13.972Z,6.80
2018-01-28T09:14:41.893Z,6.77
2018-01-28T09:17:09.739Z,7.17
2018-01-28T09:19:37.632Z,7.13
2018-01-28T09:22:05.505Z,7.50
2018-01-28T09:24:33.331Z,6.90
2018-01-28T09:27:01.163Z,7.47
2018-01-28T09:29:29.026Z,7.20
2018-01-28T09:31:56.892Z,6.97
2018-01-28T09:34:24.727Z,7.10
2018-01-28T09:36:52.604Z,6.33
2018-01-28T09:39:20.466Z,9.67
2018-01-28T09:41:48.315Z,7.43
2018-01-28T09:44:16.399Z,7.03
2018-01-28T09:46:44.305Z,7.87
2018-01-28T09:49:12.136Z,9.87
2018-01-28T09:51:40.000Z,9.87
2018-01-28T09:54:07.836Z,7.30
2018-01-28T09:56:35.729Z,6.23
2018-01-28T09:59:03.624Z,7.90
2018-01-28T10:01:31.455Z,10.53
2018-01-28T10:03:59.292Z,11.10
2018-01-28T10:06:27.152Z,7.97
2018-01-28T10:08:55.062Z,6.70
2018-01-28T10:11:23.753Z,6.80
2018-01-28T10:13:51.604Z,8.10
2018-01-28T10:16:19.465Z,8.93
2018-01-28T10:18:47.297Z,8.30
2018-01-28T10:21:15.268Z,7.90
2018-01-28T10:23:43.116Z,6.50
2018-01-28T10:26:10.964Z,8.27
2018-01-28T10:28:38.820Z,7.87
2018-01-28T10:31:06.635Z,10.57
2018-01-28T10:33:34.483Z,9.20
2018-01-28T10:36:02.403Z,7.60
2018-01-28T10:38:30.228Z,10.10
2018-01-28T10:40:58.056Z,5.70
2018-01-28T10:43:25.921Z,5.23
2018-01-28T10:45:53.776Z,6.73
2018-01-28T10:48:21.612Z,6.50
2018-01-28T10:50:49.573Z,6.53
2018-01-28T10:53:17.407Z,10.20
2018-01-28T10:55:45.223Z,10.10
2018-01-28T10:58:13.114Z,6.10
2018-01-28T11:00:40.934Z,6.57
2018-01-28T11:03:08.760Z,7.50
2018-01-28T11:05:36.634Z,7.30
2018-01-28T11:08:04.463Z,7.77
2018-01-28T11:10:32.289Z,7.67
2018-01-28T11:13:00.451Z,9.80
2018-01-28T11:15:28.296Z,7.70
2018-01-28T11:17:56.135Z,6.70
2018-01-28T11:20:23.997Z,6.10
2018-01-28T11:22:51.914Z,8.63
2018-01-28T11:25:19.751Z,5.50
2018-01-28T11:27:47.626Z,6.60
2018-01-28T11:30:15.463Z,6.23
2018-01-28T11:32:43.311Z,6.97
2018-01-28T11:35:11.196Z,5.67
2018-01-28T11:37:39.032Z,6.60
2018-01-28T11:40:06.916Z,6.30
2018-01-28T11:42:34.782Z,7.60
2018-01-28T11:45:02.658Z,6.07
2018-01-28T11:47:30.532Z,5.93
2018-01-28T11:49:58.415Z,6.40
2018-01-28T11:52:27.127Z,5.27
2018-01-28T11:54:54.987Z,7.90
2018-01-28T11:57:22.846Z,6.83
2018-01-28T11:59:50.684Z,6.83
2018-01-28T12:02:18.559Z,8.63
2018-01-28T12:04:46.422Z,7.80
2018-01-28T12:07:14.302Z,8.90
2018-01-28T12:09:42.153Z,7.20
2018-01-28T12:12:10.020Z,8.40
2018-01-28T12:14:37.850Z,7.77
2018-01-28T12:17:05.682Z,9.13
2018-01-28T12:19:33.547Z,8.23
2018-01-28T12:22:01.453Z,7.60
2018-01-28T12:24:29.345Z,7.77
2018-01-28T12:26:57.207Z,8.57
2018-01-28T12:29:25.132Z,9.10
2018-01-28T12:31:53.360Z,11.03
2018-01-28T12:34:21.243Z,8.80
2018-01-28T12:36:49.129Z,11.17
2018-01-28T12:39:16.988Z,8.67
2018-01-28T12:41:44.886Z,9.20
2018-01-28T12:44:19.625Z,9.00
2018-01-28T12:46:47.458Z,9.73
2018-01-28T12:49:15.391Z,8.30
2018-01-28T12:51:43.300Z,8.83
2018-01-28T12:54:11.240Z,8.57
2018-01-28T12:56:39.140Z,10.50
2018-01-28T12:59:07.020Z,12.97
2018-01-28T13:01:35.163Z,8.20
2018-01-28T13:04:03.022Z,10.10
2018-01-28T13:06:30.871Z,10.27
2018-01-28T13:08:58.712Z,7.70
2018-01-28T13:11:26.560Z,6.13
2018-01-28T13:13:54.444Z,5.90
2018-01-28T13:16:22.267Z,9.43
2018-01-28T13:18:50.136Z,6.50
2018-01-28T13:21:18.067Z,9.70
2018-01-28T13:23:45.907Z,10.03
2018-01-28T13:26:13.763Z,9.60
2018-01-28T13:28:42.341Z,8.53
2018-01-28T13:31:10.216Z,7.20
2018-01-28T13:33:38.064Z,4.77
2018-01-28T13:36:05.935Z,6.00
2018-01-28T13:38:33.768Z,6.50
2018-01-28T13:41:01.651Z,5.37
2018-01-28T13:43:29.532Z,5.70
2018-01-28T13:45:57.382Z,5.63
2018-01-28T13:48:25.293Z,4.77
2018-01-28T13:50:53.153Z,6.63
2018-01-28T13:53:21.021Z,5.03
2018-01-28T13:55:48.947Z,4.23
2018-01-28T13:58:16.797Z,4.30
2018-01-28T14:00:44.736Z,5.23
2018-01-28T14:03:12.616Z,5.60
2018-01-28T14:05:40.487Z,4.60
2018-01-28T14:08:08.347Z,4.73
2018-01-28T14:10:36.196Z,4.90
2018-01-28T14:13:05.029Z,5.90
2018-01-28T14:15:32.872Z,7.47
2018-01-28T14:18:00.749Z,5.47
2018-01-28T14:20:28.635Z,5.60
2018-01-28T14:22:56.524Z,4.70
2018-01-28T14:25:24.525Z,5.33
2018-01-28T14:27:52.452Z,5.00
2018-01-28T14:30:20.320Z,4.20
2018-01-28T14:32:48.192Z,5.40
2018-01-28T14:35:16.037Z,4.17
2018-01-28T14:37:43.916Z,4.80
2018-01-28T14:40:11.822Z,5.90
2018-01-28T14:42:39.684Z,5.40
2018-01-28T14:45:07.650Z,6.70
2018-01-28T14:47:35.577Z,5.40
2018-01-28T14:50:03.438Z,4.87
2018-01-28T14:52:31.279Z,6.50
2018-01-28T14:54:59.197Z,5.33
2018-01-28T14:57:27.114Z,5.53
2018-01-28T14:59:54.927Z,5.73
2018-01-28T15:02:22.807Z,6.30
2018-01-28T15:04:50.659Z,5.70
2018-01-28T15:07:18.585Z,6.40
2018-01-28T15:09:46.457Z,5.87
2018-01-28T15:12:14.433Z,6.57
2018-01-28T15:14:42.293Z,6.17
2018-01-28T15:17:10.154Z,5.33
2018-01-28T15:19:38.215Z,6.00
2018-01-28T15:22:06.064Z,6.20
2018-01-28T15:24:33.926Z,6.07
2018-01-28T15:27:01.792Z,6.27
2018-01-28T15:29:29.664Z,6.80
2018-01-28T15:31:57.544Z,6.30
2018-01-28T15:34:25.387Z,7.40
2018-01-28T15:36:54.298Z,6.83
2018-01-28T15:39:22.186Z,7.80
2018-01-28T15:41:50.051Z,6.97
2018-01-28T15:44:17.921Z,7.37
2018-01-28T15:46:46.237Z,6.63
2018-01-28T15:49:14.081Z,7.30
2018-01-28T15:51:41.985Z,7.20
2018-01-28T15:54:09.873Z,10.87
2018-01-28T15:56:37.755Z,13.97
2018-01-28T15:59:05.667Z,6.80
2018-01-28T16:01:33.523Z,6.80
2018-01-28T16:04:01.436Z,7.30
2018-01-28T16:06:29.333Z,8.63
2018-01-28T16:08:57.186Z,7.90
2018-01-28T16:11:25.024Z,7.57
2018-01-28T16:13:52.892Z,9.17
2018-01-28T16:16:20.727Z,8.23
2018-01-28T16:18:48.573Z,8.93
2018-01-28T16:21:16.472Z,12.10
2018-01-28T16:23:44.320Z,9.97
2018-01-28T16:26:12.179Z,8.80
2018-01-28T16:28:40.054Z,9.90
2018-01-28T16:31:07.982Z,9.57
2018-01-28T16:33:36.596Z,8.87
2018-01-28T16:36:04.464Z,9.00
2018-01-28T16:38:32.348Z,9.63
2018-01-28T16:41:01.168Z,10.70
2018-01-28T16:43:29.022Z,8.80
2018-01-28T16:45:56.867Z,9.20
2018-01-28T16:48:24.804Z,10.27
2018-01-28T16:50:52.667Z,12.50
2018-01-28T16:53:20.525Z,12.07
2018-01-28T16:55:48.379Z,12.50
2018-01-28T16:58:16.252Z,10.30
2018-01-28T17:00:44.135Z,11.70
2018-01-28T17:03:11.996Z,10.80
2018-01-28T17:05:39.870Z,10.77
2018-01-28T17:08:07.737Z,11.73
2018-01-28T17:10:35.572Z,12.10
2018-01-28T17:13:03.494Z,12.93
2018-01-28T17:15:31.574Z,11.87
2018-01-28T17:17:59.688Z,13.40
2018-01-28T17:20:27.847Z,15.57
2018-01-28T17:22:55.713Z,14.60
2018-01-28T17:25:23.578Z,16.07
2018-01-28T17:27:51.446Z,14.17
2018-01-28T17:30:19.312Z,13.23
2018-01-28T17:32:47.161Z,19.70
2018-01-28T17:35:21.015Z,20.60
2018-01-28T17:37:48.851Z,17.07
2018-01-28T17:40:16.691Z,23.20
2018-01-28T17:42:45.135Z,16.00
2018-01-28T17:45:12.997Z,15.63
2018-01-28T17:47:40.870Z,19.93
2018-01-28T17:50:08.769Z,14.90
2018-01-28T17:52:36.660Z,15.33
2018-01-28T17:55:05.417Z,17.40
2018-01-28T17:57:33.684Z,17.57
2018-01-28T18:00:01.534Z,20.00
2018-01-28T18:02:29.428Z,16.77
2018-01-28T18:04:57.357Z,18.57
2018-01-28T18:07:25.203Z,17.03
2018-01-28T18:09:53.066Z,18.13
2018-01-28T18:12:20.972Z,16.70
2018-01-28T18:14:48.813Z,16.20
2018-01-28T18:17:16.696Z,17.10
2018-01-28T18:19:45.547Z,13.30
2018-01-28T18:22:13.444Z,13.37
2018-01-28T18:24:42.303Z,14.33
2018-01-28T18:27:10.163Z,15.13
2018-01-28T18:29:38.430Z,14.27
2018-01-28T18:32:06.365Z,13.37
2018-01-28T18:34:34.233Z,14.20
2018-01-28T18:37:02.105Z,13.80
2018-01-28T18:39:29.965Z,15.50
2018-01-28T18:41:58.866Z,12.40
2018-01-28T18:44:26.761Z,14.17
2018-01-28T18:46:54.664Z,18.00
2018-01-28T18:49:22.563Z,12.93
2018-01-28T18:51:51.429Z,15.10
2018-01-28T18:54:19.276Z,17.00
2018-01-28T18:56:48.157Z,18.67
2018-01-28T18:59:16.154Z,18.37
2018-01-28T19:01:44.027Z,20.43
2018-01-28T19:04:11.973Z,20.40
2018-01-28T19:06:40.869Z,23.90
2018-01-28T19:09:08.833Z,23.00
2018-01-28T19:11:36.789Z,26.33
2018-01-28T19:14:04.700Z,30.17
2018-01-28T19:16:32.632Z,30.53
2018-01-28T19:19:00.592Z,29.20
2018-01-28T19:21:28.451Z,27.57
2018-01-28T19:23:56.308Z,30.80
2018-01-28T19:26:24.177Z,27.77
2018-01-28T19:28:52.125Z,23.03
2018-01-28T19:31:21.179Z,27.27
2018-01-28T19:33:49.098Z,28.67
2018-01-28T19:36:17.360Z,29.10
2018-01-28T19:38:45.231Z,31.87
2018-01-28T19:41:14.214Z,37.50
2018-01-28T19:43:43.229Z,25.13
2018-01-28T19:46:11.185Z,25.07
2018-01-28T19:48:39.307Z,35.10
2018-01-28T19:51:07.181Z,26.83
2018-01-28T19:53:35.051Z,25.07
2018-01-28T19:56:02.929Z,21.30
2018-01-28T19:58:30.888Z,19.67
2018-01-28T20:00:58.980Z,24.40
2018-01-28T20:03:26.878Z,19.60
2018-01-28T20:05:55.259Z,19.30
2018-01-28T20:08:23.141Z,13.57
2018-01-28T20:10:51.052Z,12.93
2018-01-28T20:13:18.904Z,20.97
2018-01-28T20:15:46.792Z,15.07
2018-01-28T20:18:14.670Z,14.03
2018-01-28T20:20:42.527Z,12.60
2018-01-28T20:23:10.411Z,13.23
2018-01-28T20:25:38.250Z,16.67
2018-01-28T20:28:06.094Z,12.23
2018-01-28T20:30:34.031Z,13.70
2018-01-28T20:33:01.896Z,12.53
2018-01-28T20:35:29.763Z,11.50
2018-01-28T20:37:57.604Z,13.43
2018-01-28T20:40:25.452Z,11.60
2018-01-28T20:42:53.307Z,13.47
2018-01-28T20:45:21.180Z,11.70
2018-01-28T20:47:49.040Z,12.20
2018-01-28T20:50:16.896Z,14.97
2018-01-28T20:52:44.740Z,15.30
2018-01-28T20:57:50.072Z,12.37
2018-01-28T21:00:17.952Z,17.93
2018-01-28T21:02:45.852Z,13.00
2018-01-28T21:05:14.756Z,21.27
2018-01-28T21:07:42.649Z,14.97
2018-01-28T21:10:10.512Z,19.10
2018-01-28T21:12:38.404Z,14.13
2018-01-28T21:15:06.258Z,19.00
2018-01-28T21:17:34.160Z,18.30
2018-01-28T21:20:02.013Z,15.10
2018-01-28T21:22:29.852Z,13.23
2018-01-28T21:24:58.062Z,14.80
2018-01-28T21:27:25.958Z,15.67
2018-01-28T21:29:53.836Z,18.70
2018-01-28T21:32:21.729Z,17.53
2018-01-28T21:34:49.596Z,16.53
2018-01-28T21:37:17.548Z,13.70
2018-01-28T21:39:46.399Z,14.83
2018-01-28T21:42:14.306Z,15.60
2018-01-28T21:44:42.212Z,14.80
2018-01-28T21:47:10.048Z,15.63
2018-01-28T21:49:37.890Z,17.40
2018-01-28T21:52:05.755Z,17.30
2018-01-28T21:54:33.600Z,16.57
2018-01-28T21:57:01.464Z,18.67
2018-01-28T21:59:29.416Z,18.07
2018-01-28T22:01:57.635Z,18.70
2018-01-28T22:04:25.549Z,24.60
2018-01-28T22:06:53.387Z,18.30
2018-01-28T22:09:27.192Z,24.80
2018-01-28T22:11:55.124Z,27.90
2018-01-28T22:14:22.976Z,24.87
2018-01-28T22:16:50.828Z,17.60
2018-01-28T22:19:18.755Z,23.87
2018-01-28T22:21:46.664Z,26.93
2018-01-28T22:24:14.812Z,31.50
2018-01-28T22:26:42.766Z,22.90
2018-01-28T22:29:10.633Z,23.43
2018-01-28T22:31:40.607Z,32.63
2018-01-28T22:34:08.478Z,19.20
2018-01-28T22:36:36.408Z,16.40
2018-01-28T22:39:04.334Z,19.63
2018-01-28T22:41:32.240Z,26.47
2018-01-28T22:44:00.079Z,21.70
2018-01-28T22:46:27.953Z,23.10
2018-01-28T22:48:55.824Z,20.40
2018-01-28T22:51:23.683Z,14.77
2018-01-28T22:53:51.564Z,21.33
2018-01-28T22:56:19.424Z,14.30
2018-01-28T22:58:47.260Z,15.47
2018-01-28T23:01:15.095Z,16.10
2018-01-28T23:03:42.960Z,18.00
2018-01-28T23:06:10.819Z,15.53
2018-01-28T23:08:38.672Z,10.87
2018-01-28T23:11:06.626Z,13.40
2018-01-28T23:13:34.505Z,11.60
2018-01-28T23:16:02.353Z,14.07
2018-01-28T23:18:30.214Z,11.77
2018-01-28T23:20:58.080Z,11.87
2018-01-28T23:23:26.516Z,10.83
2018-01-28T23:25:54.360Z,11.10
2018-01-28T23:28:22.213Z,12.80
2018-01-28T23:30:50.059Z,12.13
2018-01-28T23:33:17.953Z,11.23
2018-01-28T23:35:45.974Z,13.10
2018-01-28T23:38:13.803Z,9.70
2018-01-28T23:40:41.679Z,7.87
2018-01-28T23:43:09.549Z,10.93
2018-01-28T23:45:37.465Z,10.60
2018-01-28T23:48:05.346Z,9.10
2018-01-28T23:50:33.208Z,9.10
2018-01-28T23:53:01.152Z,8.73
2018-01-28T23:55:29.032Z,8.87
2018-01-28T23:57:56.863Z,6.97
